sensor_id;sensor_type;location;lat;lon;timestamp;temperature;humidity
17597;DHT22;8917;50.942;6.946;2022-09-12T00:01:43;19.10;99.90
17597;DHT22;8917;50.942;6.946;2022-09-12T00:04:11;18.90;99.90
17597;DHT22;8917;50.942;6.946;2022-09-12T00:06:38;18.90;99.90
17597;DHT22;8917;50.942;6.946;2022-09-12T00:09:09;18.90;99.90
17597;DHT22;8917;50.942;6.946;2022-09-12T00:11:37;18.90;99.90
17597;DHT22;8917;50.942;6.946;2022-09-12T00:14:08;18.90;99.90
17597;DHT22;8917;50.942;6.946;2022-09-12T00:16:37;18.90;99.90
17597;DHT22;8917;50.942;6.946;2022-09-12T00:19:09;18.90;99.90
17597;DHT22;8917;50.942;6.946;2022-09-12T00:21:38;18.90;99.90
17597;DHT22;8917;50.942;6.946;2022-09-12T00:24:06;18.90;99.90
17597;DHT22;8917;50.942;6.946;2022-09-12T00:26:34;18.90;99.90
17597;DHT22;8917;50.942;6.946;2022-09-12T00:29:02;18.90;99.90
17597;DHT22;8917;50.942;6.946;2022-09-12T00:31:30;18.90;99.90
17597;DHT22;8917;50.942;6.946;2022-09-12T00:33:59;18.80;99.90
17597;DHT22;8917;50.942;6.946;2022-09-12T00:36:29;18.80;99.90
17597;DHT22;8917;50.942;6.946;2022-09-12T00:38:56;18.80;99.90
17597;DHT22;8917;50.942;6.946;2022-09-12T00:41:25;18.80;99.90
17597;DHT22;8917;50.942;6.946;2022-09-12T00:43:54;18.80;99.90
17597;DHT22;8917;50.942;6.946;2022-09-12T00:46:30;18.80;99.90
17597;DHT22;8917;50.942;6.946;2022-09-12T00:49:04;18.70;99.90
17597;DHT22;8917;50.942;6.946;2022-09-12T00:51:35;18.70;99.90
17597;DHT22;8917;50.942;6.946;2022-09-12T00:54:06;18.70;99.90
17597;DHT22;8917;50.942;6.946;2022-09-12T00:56:38;18.70;99.90
17597;DHT22;8917;50.942;6.946;2022-09-12T00:59:12;18.70;99.90
17597;DHT22;8917;50.942;6.946;2022-09-12T01:01:41;18.70;99.90
17597;DHT22;8917;50.942;6.946;2022-09-12T01:04:20;18.70;99.90
17597;DHT22;8917;50.942;6.946;2022-09-12T01:06:49;18.60;99.90
17597;DHT22;8917;50.942;6.946;2022-09-12T01:09:19;18.60;99.90
17597;DHT22;8917;50.942;6.946;2022-09-12T01:11:48;18.70;99.90
17597;DHT22;8917;50.942;6.946;2022-09-12T01:14:21;18.70;99.90
17597;DHT22;8917;50.942;6.946;2022-09-12T01:16:49;18.60;99.90
17597;DHT22;8917;50.942;6.946;2022-09-12T01:19:33;18.60;99.90
17597;DHT22;8917;50.942;6.946;2022-09-12T01:22:22;18.50;99.90
17597;DHT22;8917;50.942;6.946;2022-09-12T01:25:04;18.50;99.90
17597;DHT22;8917;50.942;6.946;2022-09-12T01:27:43;18.50;99.90
17597;DHT22;8917;50.942;6.946;2022-09-12T01:30:37;18.50;99.90
17597;DHT22;8917;50.942;6.946;2022-09-12T01:33:34;18.40;99.90
17597;DHT22;8917;50.942;6.946;2022-09-12T01:36:16;18.40;99.90
17597;DHT22;8917;50.942;6.946;2022-09-12T01:38:48;18.40;99.90
17597;DHT22;8917;50.942;6.946;2022-09-12T01:41:24;18.40;99.90
17597;DHT22;8917;50.942;6.946;2022-09-12T01:44:03;18.40;99.90
17597;DHT22;8917;50.942;6.946;2022-09-12T01:46:41;18.40;99.90
17597;DHT22;8917;50.942;6.946;2022-09-12T01:49:15;18.30;99.90
17597;DHT22;8917;50.942;6.946;2022-09-12T01:51:54;18.30;99.90
17597;DHT22;8917;50.942;6.946;2022-09-12T01:54:29;18.30;99.90
17597;DHT22;8917;50.942;6.946;2022-09-12T01:57:00;18.30;99.90
17597;DHT22;8917;50.942;6.946;2022-09-12T01:59:36;18.30;99.90
17597;DHT22;8917;50.942;6.946;2022-09-12T02:02:07;18.30;99.90
17597;DHT22;8917;50.942;6.946;2022-09-12T02:04:42;18.20;99.90
17597;DHT22;8917;50.942;6.946;2022-09-12T02:07:17;18.30;99.90
17597;DHT22;8917;50.942;6.946;2022-09-12T02:09:51;18.30;99.90
17597;DHT22;8917;50.942;6.946;2022-09-12T02:12:25;18.20;99.90
17597;DHT22;8917;50.942;6.946;2022-09-12T02:14:56;18.20;99.90
17597;DHT22;8917;50.942;6.946;2022-09-12T02:17:29;18.20;99.90
17597;DHT22;8917;50.942;6.946;2022-09-12T02:20:02;18.20;99.90
17597;DHT22;8917;50.942;6.946;2022-09-12T02:22:34;18.20;99.90
17597;DHT22;8917;50.942;6.946;2022-09-12T02:25:04;18.10;99.90
17597;DHT22;8917;50.942;6.946;2022-09-12T02:27:35;18.10;99.90
17597;DHT22;8917;50.942;6.946;2022-09-12T02:30:04;18.10;99.90
17597;DHT22;8917;50.942;6.946;2022-09-12T02:32:37;18.10;99.90
17597;DHT22;8917;50.942;6.946;2022-09-12T02:35:13;18.10;99.90
17597;DHT22;8917;50.942;6.946;2022-09-12T02:37:50;18.10;99.90
17597;DHT22;8917;50.942;6.946;2022-09-12T02:40:21;18.10;99.90
17597;DHT22;8917;50.942;6.946;2022-09-12T02:42:48;18.10;99.90
17597;DHT22;8917;50.942;6.946;2022-09-12T02:45:17;18.10;99.90
17597;DHT22;8917;50.942;6.946;2022-09-12T02:47:49;18.00;99.90
17597;DHT22;8917;50.942;6.946;2022-09-12T02:50:17;18.00;99.90
17597;DHT22;8917;50.942;6.946;2022-09-12T02:52:47;17.90;99.90
17597;DHT22;8917;50.942;6.946;2022-09-12T02:55:15;18.00;99.90
17597;DHT22;8917;50.942;6.946;2022-09-12T02:57:43;18.00;99.90
17597;DHT22;8917;50.942;6.946;2022-09-12T03:00:11;18.00;99.90
17597;DHT22;8917;50.942;6.946;2022-09-12T03:02:53;18.00;99.90
17597;DHT22;8917;50.942;6.946;2022-09-12T03:05:27;18.00;99.90
17597;DHT22;8917;50.942;6.946;2022-09-12T03:08:18;18.00;99.90
17597;DHT22;8917;50.942;6.946;2022-09-12T03:11:05;18.00;99.90
17597;DHT22;8917;50.942;6.946;2022-09-12T03:13:41;18.00;99.90
17597;DHT22;8917;50.942;6.946;2022-09-12T03:16:16;17.90;99.90
17597;DHT22;8917;50.942;6.946;2022-09-12T03:18:57;17.90;99.90
17597;DHT22;8917;50.942;6.946;2022-09-12T03:21:30;17.90;99.90
17597;DHT22;8917;50.942;6.946;2022-09-12T03:24:10;17.90;99.90
17597;DHT22;8917;50.942;6.946;2022-09-12T03:26:42;17.90;99.90
17597;DHT22;8917;50.942;6.946;2022-09-12T03:29:11;17.90;99.90
17597;DHT22;8917;50.942;6.946;2022-09-12T03:31:48;17.90;99.90
17597;DHT22;8917;50.942;6.946;2022-09-12T03:34:17;17.80;99.90
17597;DHT22;8917;50.942;6.946;2022-09-12T03:36:44;17.80;99.90
17597;DHT22;8917;50.942;6.946;2022-09-12T03:39:11;17.80;99.90
17597;DHT22;8917;50.942;6.946;2022-09-12T03:41:41;17.80;99.90
17597;DHT22;8917;50.942;6.946;2022-09-12T03:44:11;17.80;99.90
17597;DHT22;8917;50.942;6.946;2022-09-12T03:46:40;17.70;99.90
17597;DHT22;8917;50.942;6.946;2022-09-12T03:49:09;17.70;99.90
17597;DHT22;8917;50.942;6.946;2022-09-12T03:51:38;17.70;99.90
17597;DHT22;8917;50.942;6.946;2022-09-12T03:54:06;17.70;99.90
17597;DHT22;8917;50.942;6.946;2022-09-12T03:56:36;17.60;99.90
17597;DHT22;8917;50.942;6.946;2022-09-12T03:59:05;17.70;99.90
17597;DHT22;8917;50.942;6.946;2022-09-12T04:01:35;17.70;99.90
17597;DHT22;8917;50.942;6.946;2022-09-12T04:04:03;17.70;99.90
17597;DHT22;8917;50.942;6.946;2022-09-12T04:06:30;17.70;99.90
17597;DHT22;8917;50.942;6.946;2022-09-12T04:08:58;17.70;99.90
17597;DHT22;8917;50.942;6.946;2022-09-12T04:11:25;17.70;99.90
17597;DHT22;8917;50.942;6.946;2022-09-12T04:13:53;17.70;99.90
17597;DHT22;8917;50.942;6.946;2022-09-12T04:16:20;17.70;99.90
17597;DHT22;8917;50.942;6.946;2022-09-12T04:18:47;17.70;99.90
17597;DHT22;8917;50.942;6.946;2022-09-12T04:21:16;17.70;99.90
17597;DHT22;8917;50.942;6.946;2022-09-12T04:23:44;17.70;99.90
17597;DHT22;8917;50.942;6.946;2022-09-12T04:26:13;17.70;99.90
17597;DHT22;8917;50.942;6.946;2022-09-12T04:28:45;17.70;99.90
17597;DHT22;8917;50.942;6.946;2022-09-12T04:31:17;17.60;99.90
17597;DHT22;8917;50.942;6.946;2022-09-12T04:33:45;17.60;99.90
17597;DHT22;8917;50.942;6.946;2022-09-12T04:36:15;17.60;99.90
17597;DHT22;8917;50.942;6.946;2022-09-12T04:38:44;17.60;99.90
17597;DHT22;8917;50.942;6.946;2022-09-12T04:41:16;17.60;99.90
17597;DHT22;8917;50.942;6.946;2022-09-12T04:43:44;17.60;99.90
17597;DHT22;8917;50.942;6.946;2022-09-12T04:46:14;17.60;99.90
17597;DHT22;8917;50.942;6.946;2022-09-12T04:48:43;17.60;99.90
17597;DHT22;8917;50.942;6.946;2022-09-12T04:51:13;17.60;99.90
17597;DHT22;8917;50.942;6.946;2022-09-12T04:53:42;17.50;99.90
17597;DHT22;8917;50.942;6.946;2022-09-12T04:56:11;17.50;99.90
17597;DHT22;8917;50.942;6.946;2022-09-12T04:58:40;17.50;99.90
17597;DHT22;8917;50.942;6.946;2022-09-12T05:01:08;17.50;99.90
17597;DHT22;8917;50.942;6.946;2022-09-12T05:03:36;17.50;99.90
17597;DHT22;8917;50.942;6.946;2022-09-12T05:06:05;17.50;99.90
17597;DHT22;8917;50.942;6.946;2022-09-12T05:08:33;17.60;99.90
17597;DHT22;8917;50.942;6.946;2022-09-12T05:11:01;17.50;99.90
17597;DHT22;8917;50.942;6.946;2022-09-12T05:13:30;17.40;99.90
17597;DHT22;8917;50.942;6.946;2022-09-12T05:16:01;17.40;99.90
17597;DHT22;8917;50.942;6.946;2022-09-12T05:18:30;17.40;99.90
17597;DHT22;8917;50.942;6.946;2022-09-12T05:20:58;17.40;99.90
17597;DHT22;8917;50.942;6.946;2022-09-12T05:23:27;17.50;99.90
17597;DHT22;8917;50.942;6.946;2022-09-12T05:25:56;17.30;99.90
17597;DHT22;8917;50.942;6.946;2022-09-12T05:28:27;17.40;99.90
17597;DHT22;8917;50.942;6.946;2022-09-12T05:31:01;17.50;99.90
17597;DHT22;8917;50.942;6.946;2022-09-12T05:33:33;17.50;99.90
17597;DHT22;8917;50.942;6.946;2022-09-12T05:36:01;17.50;99.90
17597;DHT22;8917;50.942;6.946;2022-09-12T05:38:29;17.40;99.90
17597;DHT22;8917;50.942;6.946;2022-09-12T05:41:02;17.50;99.90
17597;DHT22;8917;50.942;6.946;2022-09-12T05:43:31;17.50;99.90
17597;DHT22;8917;50.942;6.946;2022-09-12T05:46:04;17.40;99.90
17597;DHT22;8917;50.942;6.946;2022-09-12T05:48:33;17.50;99.90
17597;DHT22;8917;50.942;6.946;2022-09-12T05:51:03;17.50;99.90
17597;DHT22;8917;50.942;6.946;2022-09-12T05:53:32;17.50;99.90
17597;DHT22;8917;50.942;6.946;2022-09-12T05:56:04;17.50;99.90
17597;DHT22;8917;50.942;6.946;2022-09-12T05:58:38;17.50;99.90
17597;DHT22;8917;50.942;6.946;2022-09-12T06:01:09;17.60;99.90
17597;DHT22;8917;50.942;6.946;2022-09-12T06:03:40;17.60;99.90
17597;DHT22;8917;50.942;6.946;2022-09-12T06:06:08;17.60;99.90
17597;DHT22;8917;50.942;6.946;2022-09-12T06:08:38;17.70;99.90
17597;DHT22;8917;50.942;6.946;2022-09-12T06:11:09;17.60;99.90
17597;DHT22;8917;50.942;6.946;2022-09-12T06:13:40;17.60;99.90
17597;DHT22;8917;50.942;6.946;2022-09-12T06:16:10;17.60;99.90
17597;DHT22;8917;50.942;6.946;2022-09-12T06:18:38;17.60;99.90
17597;DHT22;8917;50.942;6.946;2022-09-12T06:21:10;17.60;99.90
17597;DHT22;8917;50.942;6.946;2022-09-12T06:23:39;17.60;99.90
17597;DHT22;8917;50.942;6.946;2022-09-12T06:26:08;17.60;99.90
17597;DHT22;8917;50.942;6.946;2022-09-12T06:28:37;17.70;99.90
17597;DHT22;8917;50.942;6.946;2022-09-12T06:31:06;17.70;99.90
17597;DHT22;8917;50.942;6.946;2022-09-12T06:33:37;17.70;99.90
17597;DHT22;8917;50.942;6.946;2022-09-12T06:36:06;17.80;99.90
17597;DHT22;8917;50.942;6.946;2022-09-12T06:38:39;17.70;99.90
17597;DHT22;8917;50.942;6.946;2022-09-12T06:41:09;17.80;99.90
17597;DHT22;8917;50.942;6.946;2022-09-12T06:43:37;17.80;99.90
17597;DHT22;8917;50.942;6.946;2022-09-12T06:46:04;17.80;99.90
17597;DHT22;8917;50.942;6.946;2022-09-12T06:48:36;17.90;99.90
17597;DHT22;8917;50.942;6.946;2022-09-12T06:51:04;17.80;99.90
17597;DHT22;8917;50.942;6.946;2022-09-12T06:53:33;17.80;99.90
17597;DHT22;8917;50.942;6.946;2022-09-12T06:56:03;17.90;99.90
17597;DHT22;8917;50.942;6.946;2022-09-12T06:58:32;17.90;99.90
17597;DHT22;8917;50.942;6.946;2022-09-12T07:01:04;17.90;99.90
17597;DHT22;8917;50.942;6.946;2022-09-12T07:03:33;18.00;99.90
17597;DHT22;8917;50.942;6.946;2022-09-12T07:06:03;18.00;99.90
17597;DHT22;8917;50.942;6.946;2022-09-12T07:08:31;18.00;99.90
17597;DHT22;8917;50.942;6.946;2022-09-12T07:11:07;18.10;99.90
17597;DHT22;8917;50.942;6.946;2022-09-12T07:13:35;18.10;99.90
17597;DHT22;8917;50.942;6.946;2022-09-12T07:16:04;18.20;99.90
17597;DHT22;8917;50.942;6.946;2022-09-12T07:18:31;18.10;99.90
17597;DHT22;8917;50.942;6.946;2022-09-12T07:20:59;18.20;99.90
17597;DHT22;8917;50.942;6.946;2022-09-12T07:23:37;18.20;99.90
17597;DHT22;8917;50.942;6.946;2022-09-12T07:26:05;18.20;99.90
17597;DHT22;8917;50.942;6.946;2022-09-12T07:28:36;18.20;99.90
17597;DHT22;8917;50.942;6.946;2022-09-12T07:31:06;18.20;99.90
17597;DHT22;8917;50.942;6.946;2022-09-12T07:33:38;18.20;99.90
17597;DHT22;8917;50.942;6.946;2022-09-12T07:36:09;18.30;99.90
17597;DHT22;8917;50.942;6.946;2022-09-12T07:38:41;18.40;99.90
17597;DHT22;8917;50.942;6.946;2022-09-12T07:41:12;18.30;99.90
17597;DHT22;8917;50.942;6.946;2022-09-12T07:43:39;18.40;99.90
17597;DHT22;8917;50.942;6.946;2022-09-12T07:46:08;18.50;99.90
17597;DHT22;8917;50.942;6.946;2022-09-12T07:48:35;18.50;99.90
17597;DHT22;8917;50.942;6.946;2022-09-12T07:51:04;18.60;99.90
17597;DHT22;8917;50.942;6.946;2022-09-12T07:53:33;18.60;99.90
17597;DHT22;8917;50.942;6.946;2022-09-12T07:56:04;18.70;99.90
17597;DHT22;8917;50.942;6.946;2022-09-12T07:58:33;18.70;99.90
17597;DHT22;8917;50.942;6.946;2022-09-12T08:01:02;18.80;99.90
17597;DHT22;8917;50.942;6.946;2022-09-12T08:03:30;18.70;99.90
17597;DHT22;8917;50.942;6.946;2022-09-12T08:06:03;18.80;99.90
17597;DHT22;8917;50.942;6.946;2022-09-12T08:08:30;18.90;99.90
17597;DHT22;8917;50.942;6.946;2022-09-12T08:10:58;19.00;99.90
17597;DHT22;8917;50.942;6.946;2022-09-12T08:13:27;19.00;99.90
17597;DHT22;8917;50.942;6.946;2022-09-12T08:15:56;19.00;99.90
17597;DHT22;8917;50.942;6.946;2022-09-12T08:18:25;19.10;99.90
17597;DHT22;8917;50.942;6.946;2022-09-12T08:20:57;19.10;99.90
17597;DHT22;8917;50.942;6.946;2022-09-12T08:23:25;19.10;99.90
17597;DHT22;8917;50.942;6.946;2022-09-12T08:25:58;19.00;99.90
17597;DHT22;8917;50.942;6.946;2022-09-12T08:28:27;19.10;99.90
17597;DHT22;8917;50.942;6.946;2022-09-12T08:31:00;19.10;99.90
17597;DHT22;8917;50.942;6.946;2022-09-12T08:33:28;19.10;99.90
17597;DHT22;8917;50.942;6.946;2022-09-12T08:36:05;19.20;99.90
17597;DHT22;8917;50.942;6.946;2022-09-12T08:38:33;19.20;99.90
17597;DHT22;8917;50.942;6.946;2022-09-12T08:41:06;19.30;99.90
17597;DHT22;8917;50.942;6.946;2022-09-12T08:46:48;19.20;99.90
17597;DHT22;8917;50.942;6.946;2022-09-12T08:49:25;19.30;99.90
17597;DHT22;8917;50.942;6.946;2022-09-12T08:51:59;19.40;99.90
17597;DHT22;8917;50.942;6.946;2022-09-12T08:54:36;19.60;99.90
17597;DHT22;8917;50.942;6.946;2022-09-12T08:57:05;19.70;99.90
17597;DHT22;8917;50.942;6.946;2022-09-12T08:59:37;19.80;99.90
17597;DHT22;8917;50.942;6.946;2022-09-12T09:02:41;19.90;99.90
17597;DHT22;8917;50.942;6.946;2022-09-12T09:05:18;19.90;99.90
17597;DHT22;8917;50.942;6.946;2022-09-12T09:08:09;20.10;99.90
17597;DHT22;8917;50.942;6.946;2022-09-12T09:10:47;20.70;99.90
17597;DHT22;8917;50.942;6.946;2022-09-12T09:13:32;21.20;99.90
17597;DHT22;8917;50.942;6.946;2022-09-12T09:16:29;20.90;99.90
17597;DHT22;8917;50.942;6.946;2022-09-12T09:18:58;20.70;99.90
17597;DHT22;8917;50.942;6.946;2022-09-12T09:21:30;20.80;99.90
17597;DHT22;8917;50.942;6.946;2022-09-12T09:24:02;21.30;99.90
17597;DHT22;8917;50.942;6.946;2022-09-12T09:26:40;21.10;99.90
17597;DHT22;8917;50.942;6.946;2022-09-12T09:29:15;20.80;99.90
17597;DHT22;8917;50.942;6.946;2022-09-12T09:31:47;20.80;99.90
17597;DHT22;8917;50.942;6.946;2022-09-12T09:34:19;20.80;99.90
17597;DHT22;8917;50.942;6.946;2022-09-12T09:36:51;20.70;99.90
17597;DHT22;8917;50.942;6.946;2022-09-12T09:39:33;20.80;99.90
